createdAt,value
2019-04-23T00:01:47.000Z,101046.50
2019-04-23T00:04:13.309Z,101044.50
2019-04-23T00:06:52.359Z,101043.67
2019-04-23T00:09:26.019Z,101045.16
2019-04-23T00:14:20.680Z,101041.20
2019-04-23T00:16:47.490Z,101040.86
2019-04-23T00:19:16.932Z,101040.70
2019-04-23T00:21:57.486Z,101044.53
2019-04-23T00:27:23.871Z,101033.70
2019-04-23T00:32:15.120Z,101030.20
2019-04-23T00:34:47.693Z,101027.22
2019-04-23T00:37:28.383Z,101020.55
2019-04-23T00:39:52.937Z,101022.73
2019-04-23T00:42:23.876Z,101022.23
2019-04-23T00:47:20.934Z,101015.05
2019-04-23T00:49:51.553Z,101016.71
2019-04-23T00:52:20.442Z,101017.58
2019-04-23T00:57:24.245Z,101010.89
2019-04-23T00:59:53.586Z,101007.19
2019-04-23T01:02:17.775Z,101010.35
2019-04-23T01:04:49.665Z,101016.84
2019-04-23T01:07:18.747Z,101016.84
2019-04-23T01:10:03.140Z,101018.69
2019-04-23T01:12:31.646Z,101017.19
2019-04-23T01:14:56.040Z,101012.67
2019-04-23T01:17:33.699Z,101009.52
2019-04-23T01:20:14.799Z,101005.68
2019-04-23T01:22:27.470Z,101009.52
2019-04-23T01:25:08.461Z,101013.84
2019-04-23T01:27:55.904Z,101001.19
2019-04-23T01:30:28.292Z,101001.02
2019-04-23T01:33:03.005Z,101000.03
2019-04-23T01:35:26.960Z,100983.19
2019-04-23T01:38:02.601Z,100986.05
2019-04-23T01:43:04.188Z,100988.86
2019-04-23T01:45:45.495Z,100979.89
2019-04-23T01:47:59.782Z,100982.20
2019-04-23T01:50:40.373Z,100976.72
2019-04-23T01:53:16.615Z,100975.87
2019-04-23T01:55:53.028Z,100978.53
2019-04-23T01:58:38.261Z,100968.70
2019-04-23T02:00:43.263Z,100969.69
2019-04-23T02:03:09.402Z,100971.52
2019-04-23T02:05:41.533Z,100969.53
2019-04-23T02:08:07.862Z,100968.36
2019-04-23T02:13:16.505Z,100962.19
2019-04-23T02:15:44.059Z,100965.56
2019-04-23T02:18:18.289Z,100953.85
2019-04-23T02:20:48.091Z,100962.18
2019-04-23T02:28:31.174Z,100951.89
2019-04-23T02:31:18.719Z,100956.86
2019-04-23T02:33:43.819Z,100950.05
2019-04-23T02:36:02.531Z,100949.22
2019-04-23T02:41:13.114Z,100946.23
2019-04-23T02:43:22.051Z,100957.55
2019-04-23T02:46:05.544Z,100945.25
2019-04-23T02:48:36.165Z,100945.58
2019-04-23T02:51:04.405Z,100942.91
2019-04-23T02:53:51.240Z,100947.06
2019-04-23T02:58:42.208Z,100944.41
2019-04-23T03:03:42.769Z,100942.91
2019-04-23T03:06:05.970Z,100932.77
2019-04-23T03:08:40.014Z,100929.91
2019-04-23T03:11:26.749Z,100937.59
2019-04-23T03:19:04.284Z,100936.08
2019-04-23T03:24:28.623Z,100922.44
2019-04-23T03:29:40.188Z,100925.91
2019-04-23T03:39:32.556Z,100920.58
2019-04-23T03:41:54.450Z,100914.41
2019-04-23T03:44:31.443Z,100912.90
2019-04-23T03:46:49.756Z,100911.58
2019-04-23T03:49:21.411Z,100915.87
2019-04-23T03:52:01.316Z,100916.58
2019-04-23T04:07:05.594Z,100914.98
2019-04-23T04:11:54.968Z,100909.83
2019-04-23T04:19:31.952Z,100913.48
2019-04-23T04:21:58.423Z,100916.11
2019-04-23T04:24:36.893Z,100905.09
2019-04-23T04:35:05.088Z,100895.10
2019-04-23T04:37:27.323Z,100892.19
2019-04-23T04:39:33.507Z,100892.70
2019-04-23T04:41:58.866Z,100893.69
2019-04-23T04:49:39.081Z,100886.53
2019-04-23T04:52:21.864Z,100891.68
2019-04-23T04:57:15.038Z,100887.89
2019-04-23T04:59:51.136Z,100889.36
2019-04-23T05:02:20.920Z,100888.89
2019-04-23T05:04:48.232Z,100888.88
2019-04-23T05:07:11.064Z,100891.22
2019-04-23T05:09:48.453Z,100890.56
2019-04-23T05:14:52.748Z,100882.94
2019-04-23T05:22:15.783Z,100883.12
2019-04-23T05:27:15.559Z,100878.62
2019-04-23T05:29:51.181Z,100881.61
2019-04-23T05:32:12.177Z,100873.97
2019-04-23T05:34:52.125Z,100865.62
2019-04-23T05:37:28.304Z,100864.08
2019-04-23T05:40:15.987Z,100872.92
2019-04-23T05:42:19.357Z,100869.57
2019-04-23T05:47:39.923Z,100862.88
2019-04-23T05:49:57.020Z,100871.69
2019-04-23T05:52:27.827Z,100868.84
2019-04-23T05:54:56.315Z,100876.17
2019-04-23T05:57:20.731Z,100860.20
2019-04-23T05:59:54.731Z,100858.03
2019-04-23T06:02:26.202Z,100859.84
2019-04-23T06:04:57.294Z,100865.60
2019-04-23T06:09:59.425Z,100867.39
2019-04-23T06:12:31.440Z,100859.52
2019-04-23T06:15:05.164Z,100866.05
2019-04-23T06:17:29.762Z,100860.61
2019-04-23T06:22:38.002Z,100867.92
2019-04-23T06:25:21.655Z,100863.63
2019-04-23T06:27:35.522Z,100859.05
2019-04-23T06:30:01.091Z,100858.82
2019-04-23T06:32:55.227Z,100853.64
2019-04-23T06:35:06.354Z,100850.16
2019-04-23T06:37:49.847Z,100845.50
2019-04-23T06:40:08.232Z,100849.09
2019-04-23T06:42:39.298Z,100829.65
2019-04-23T06:45:26.422Z,100837.52
2019-04-23T06:47:37.515Z,100839.54
2019-04-23T06:50:03.591Z,100821.48
2019-04-23T06:52:31.425Z,100817.73
2019-04-23T06:55:09.139Z,100818.52
2019-04-23T06:57:33.681Z,100824.80
2019-04-23T07:00:06.581Z,100814.36
2019-04-23T07:02:39.440Z,100821.09
2019-04-23T07:05:28.040Z,100827.45
2019-04-23T07:10:10.690Z,100816.23
2019-04-23T07:12:44.770Z,100800.67
2019-04-23T07:15:25.103Z,100798.34
2019-04-23T07:17:34.887Z,100800.63
2019-04-23T07:20:13.129Z,100789.12
2019-04-23T07:22:46.347Z,100790.92
2019-04-23T07:25:12.791Z,100795.64
2019-04-23T07:27:41.087Z,100790.95
2019-04-23T07:30:16.753Z,100793.54
2019-04-23T07:32:44.048Z,100787.13
2019-04-23T07:35:15.786Z,100780.36
2019-04-23T07:37:51.782Z,100780.49
2019-04-23T07:43:10.198Z,100777.85
2019-04-23T07:45:57.340Z,100775.80
2019-04-23T07:48:18.521Z,100778.75
2019-04-23T07:51:10.886Z,100763.34
2019-04-23T07:53:44.369Z,100760.20
2019-04-23T07:56:05.873Z,100751.67
2019-04-23T07:58:27.329Z,100749.98
2019-04-23T08:00:48.773Z,100747.20
2019-04-23T08:03:20.997Z,100752.70
2019-04-23T08:06:10.176Z,100755.65
2019-04-23T08:08:39.710Z,100734.79
2019-04-23T08:16:18.035Z,100743.22
2019-04-23T08:18:45.209Z,100746.88
2019-04-23T08:21:10.460Z,100739.31
2019-04-23T08:23:50.683Z,100745.77
2019-04-23T08:26:42.826Z,100730.47
2019-04-23T08:31:40.353Z,100726.87
2019-04-23T08:34:17.135Z,100739.67
2019-04-23T08:39:02.090Z,100713.38
2019-04-23T08:41:46.822Z,100723.19
2019-04-23T08:44:23.874Z,100712.84
2019-04-23T08:46:56.873Z,100713.69
2019-04-23T08:54:48.276Z,100705.62
2019-04-23T08:59:38.887Z,100699.78
2019-04-23T09:04:41.761Z,100692.06
2019-04-23T09:07:13.418Z,100688.58
2019-04-23T09:12:08.167Z,100680.56
2019-04-23T09:14:39.943Z,100680.32
2019-04-23T09:17:11.242Z,100671.57
2019-04-23T09:19:56.276Z,100668.01
2019-04-23T09:22:17.204Z,100673.02
2019-04-23T09:24:44.799Z,100666.05
2019-04-23T09:27:17.979Z,100662.33
2019-04-23T09:29:49.161Z,100664.89
2019-04-23T09:32:23.901Z,100660.59
2019-04-23T09:37:26.548Z,100655.71
2019-04-23T09:40:04.821Z,100643.72
2019-04-23T09:45:34.176Z,100637.87
2019-04-23T09:48:15.648Z,100636.20
2019-04-23T09:50:38.480Z,100630.20
2019-04-23T09:53:17.670Z,100630.92
2019-04-23T10:00:51.455Z,100620.59
2019-04-23T10:03:02.342Z,100627.05
2019-04-23T10:05:29.145Z,100617.78
2019-04-23T10:07:54.454Z,100516.98
2019-04-23T10:10:18.598Z,100609.77
2019-04-23T10:12:48.218Z,100602.89
2019-04-23T10:15:25.077Z,100611.49
2019-04-23T10:17:49.966Z,100602.98
2019-04-23T10:20:20.480Z,100594.00
2019-04-23T10:22:50.469Z,100580.42
2019-04-23T10:25:19.294Z,100579.62
2019-04-23T10:28:09.304Z,100587.00
2019-04-23T10:30:36.632Z,100578.67
2019-04-23T10:33:05.644Z,100585.46
2019-04-23T10:35:44.561Z,100578.12
2019-04-23T10:38:10.400Z,100577.53
2019-04-23T10:40:38.895Z,100564.05
2019-04-23T10:43:05.433Z,100578.29
2019-04-23T10:46:08.710Z,100566.47
2019-04-23T10:49:11.451Z,100563.33
2019-04-23T10:56:47.840Z,100544.47
2019-04-23T10:59:35.425Z,100537.33
2019-04-23T11:02:28.077Z,100524.95
2019-04-23T11:12:16.337Z,100516.38
2019-04-23T11:14:43.192Z,100505.77
2019-04-23T11:17:21.253Z,100504.02
2019-04-23T11:19:52.844Z,100507.28
2019-04-23T11:22:30.209Z,100511.52
2019-04-23T11:24:48.874Z,100509.98
2019-04-23T11:27:14.658Z,100521.09
2019-04-23T11:29:38.843Z,100515.20
2019-04-23T11:37:23.448Z,100511.83
2019-04-23T11:39:53.868Z,100508.88
2019-04-23T11:42:17.285Z,100498.16
2019-04-23T11:44:56.679Z,100508.95
2019-04-23T11:47:45.622Z,100491.91
2019-04-23T11:52:30.321Z,100489.52
2019-04-23T11:54:53.832Z,100485.98
2019-04-23T11:57:41.244Z,100484.16
2019-04-23T12:02:44.061Z,100477.52
2019-04-23T12:05:30.106Z,100472.37
2019-04-23T12:07:49.943Z,100466.39
2019-04-23T12:10:44.480Z,100475.41
2019-04-23T12:13:03.886Z,100477.71
2019-04-23T12:18:12.955Z,100469.09
2019-04-23T12:28:08.592Z,100437.48
2019-04-23T12:30:45.168Z,100460.57
2019-04-23T12:33:24.984Z,100456.86
2019-04-23T12:35:45.374Z,100450.49
2019-04-23T12:38:18.939Z,100449.41
2019-04-23T12:41:04.985Z,100465.97
2019-04-23T12:43:19.119Z,100448.88
2019-04-23T12:45:50.476Z,100435.73
2019-04-23T12:48:35.085Z,100437.54
2019-04-23T12:51:08.424Z,100428.54
2019-04-23T12:53:32.134Z,100428.92
2019-04-23T12:56:17.006Z,100426.52
2019-04-23T12:58:26.682Z,100423.16
2019-04-23T13:00:53.919Z,100422.81
2019-04-23T13:03:29.929Z,100419.44
2019-04-23T13:05:54.077Z,100419.89
2019-04-23T13:10:57.294Z,100414.56
2019-04-23T13:16:06.331Z,100388.20
2019-04-23T13:18:34.106Z,100378.94
2019-04-23T13:21:15.845Z,100390.13
2019-04-23T13:26:09.000Z,100380.38
2019-04-23T13:31:12.468Z,100384.48
2019-04-23T13:36:29.625Z,100358.61
2019-04-23T13:38:41.815Z,100353.42
2019-04-23T13:43:40.138Z,100359.53
2019-04-23T13:48:42.150Z,100338.18
2019-04-23T13:54:07.884Z,100340.13
2019-04-23T13:56:53.876Z,100342.75
2019-04-23T13:59:37.802Z,100329.15
2019-04-23T14:01:54.767Z,100335.22
2019-04-23T14:04:21.365Z,100319.80
2019-04-23T14:06:46.411Z,100326.60
2019-04-23T14:09:25.517Z,100323.72
2019-04-23T14:11:45.231Z,100314.22
2019-04-23T14:14:41.800Z,100312.12
2019-04-23T14:17:02.270Z,100304.00
2019-04-23T14:19:23.194Z,100290.86
2019-04-23T14:22:07.078Z,100298.27
2019-04-23T14:24:32.385Z,100298.53
2019-04-23T14:26:58.204Z,100276.81
2019-04-23T14:29:28.196Z,100298.98
2019-04-23T14:32:08.931Z,100291.70
2019-04-23T14:34:37.751Z,100276.36
2019-04-23T14:37:04.275Z,100290.28
2019-04-23T14:39:40.521Z,100283.82
2019-04-23T14:42:30.789Z,100278.48
2019-04-23T14:44:44.105Z,100277.46
2019-04-23T14:49:58.901Z,100258.14
2019-04-23T14:52:23.175Z,100268.30
2019-04-23T14:55:28.004Z,100257.48
2019-04-23T14:57:32.672Z,100254.05
2019-04-23T14:59:57.385Z,100256.89
2019-04-23T15:02:28.696Z,100233.73
2019-04-23T15:05:07.726Z,100239.80
2019-04-23T15:07:28.233Z,100260.98
2019-04-23T15:10:01.512Z,100240.48
2019-04-23T15:17:41.304Z,100247.36
2019-04-23T15:23:02.568Z,100224.68
2019-04-23T15:28:06.211Z,100226.64
2019-04-23T15:30:15.761Z,100219.78
2019-04-23T15:33:07.546Z,100229.02
2019-04-23T15:40:25.258Z,100207.77
2019-04-23T15:43:04.228Z,100221.50
2019-04-23T15:45:31.864Z,100208.61
2019-04-23T15:48:04.999Z,100202.19
2019-04-23T15:50:38.521Z,100205.70
2019-04-23T15:53:01.392Z,100206.78
2019-04-23T15:55:35.060Z,100196.70
2019-04-23T15:58:17.443Z,100208.25
2019-04-23T16:00:42.904Z,100197.44
2019-04-23T16:02:39.399Z,100208.38
2019-04-23T16:05:12.219Z,100216.83
2019-04-23T16:08:01.804Z,100199.81
2019-04-23T16:10:52.336Z,100206.95
2019-04-23T16:13:27.616Z,100210.50
2019-04-23T16:15:48.154Z,100207.28
2019-04-23T16:18:28.387Z,100203.05
2019-04-23T16:20:54.592Z,100203.06
2019-04-23T16:23:21.547Z,100212.80
2019-04-23T16:25:49.778Z,100205.12
2019-04-23T16:28:38.410Z,100219.45
2019-04-23T16:30:56.460Z,100207.02
2019-04-23T16:33:16.676Z,100195.30
2019-04-23T16:36:01.942Z,100205.75
2019-04-23T16:38:36.649Z,100211.03
2019-04-23T16:40:47.657Z,100206.37
2019-04-23T16:43:42.421Z,100211.02
2019-04-23T16:46:04.172Z,100205.00
2019-04-23T16:48:53.199Z,100206.69
2019-04-23T16:51:12.175Z,100197.97
2019-04-23T16:53:47.044Z,100206.63
2019-04-23T16:56:16.422Z,100200.08
2019-04-23T16:59:03.672Z,100197.58
2019-04-23T17:01:12.368Z,100198.80
2019-04-23T17:03:49.771Z,100191.66
2019-04-23T17:06:29.475Z,100196.80
2019-04-23T17:11:18.884Z,100194.55
2019-04-23T17:16:26.963Z,100191.36
2019-04-23T17:21:16.605Z,100190.33
2019-04-23T17:28:54.523Z,100199.28
2019-04-23T17:31:32.763Z,100203.77
2019-04-23T17:37:03.258Z,100187.26
2019-04-23T17:39:14.589Z,100199.67
2019-04-23T17:42:05.175Z,100211.73
2019-04-23T17:47:06.415Z,100208.57
2019-04-23T17:49:41.940Z,100197.80
2019-04-23T17:52:14.393Z,100199.63
2019-04-23T17:54:41.244Z,100194.24
2019-04-23T18:00:12.044Z,100190.98
2019-04-23T18:05:02.548Z,100193.23
2019-04-23T18:07:41.078Z,100197.17
2019-04-23T18:10:09.898Z,100197.83
2019-04-23T18:12:39.013Z,100191.96
2019-04-23T18:15:03.428Z,100197.55
2019-04-23T18:22:46.908Z,100191.08
2019-04-23T18:25:17.094Z,100207.08
2019-04-23T18:30:19.218Z,100203.22
2019-04-23T18:35:49.608Z,100198.88
2019-04-23T18:38:13.889Z,100207.56
2019-04-23T18:40:54.591Z,100208.75
2019-04-23T18:43:26.870Z,100209.65
2019-04-23T18:53:45.598Z,100210.80
2019-04-23T18:56:19.196Z,100206.53
2019-04-23T19:01:28.094Z,100210.50
2019-04-23T19:06:44.153Z,100203.20
2019-04-23T19:14:56.288Z,100211.67
2019-04-23T19:17:36.005Z,100217.83
2019-04-23T19:19:44.361Z,100219.25
2019-04-23T19:22:29.219Z,100216.41
2019-04-23T19:24:43.529Z,100220.13
2019-04-23T19:29:59.739Z,100213.63
2019-04-23T19:32:06.594Z,100214.84
2019-04-23T19:34:53.213Z,100216.13
2019-04-23T19:37:23.141Z,100219.55
2019-04-23T19:39:46.429Z,100220.69
2019-04-23T19:47:19.359Z,100231.63
2019-04-23T19:49:52.600Z,100225.94
2019-04-23T19:52:21.863Z,100230.18
2019-04-23T19:54:56.832Z,100230.91
2019-04-23T19:57:22.156Z,100231.06
2019-04-23T19:59:58.323Z,100226.23
2019-04-23T20:02:47.829Z,100228.35
2019-04-23T20:16:40.024Z,100221.85
2019-04-23T20:19:26.992Z,100222.84
2019-04-23T20:22:00.228Z,100222.84
2019-04-23T20:24:28.614Z,100220.56
2019-04-23T20:27:13.968Z,100216.77
2019-04-23T20:29:50.849Z,100215.45
2019-04-23T20:35:06.638Z,100214.92
2019-04-23T20:40:48.559Z,100213.92
2019-04-23T20:43:28.984Z,100202.61
2019-04-23T20:45:55.797Z,100208.48
2019-04-23T20:48:25.189Z,100205.78
2019-04-23T20:50:52.356Z,100194.33
2019-04-23T20:53:30.999Z,100204.56
2019-04-23T20:58:49.992Z,100192.81
2019-04-23T21:01:33.831Z,100192.20
2019-04-23T21:03:55.260Z,100195.27
2019-04-23T21:06:32.714Z,100190.73
2019-04-23T21:11:36.673Z,100187.34
2019-04-23T21:14:27.238Z,100189.28
2019-04-23T21:16:37.523Z,100182.99
2019-04-23T21:19:06.751Z,100176.71
2019-04-23T21:21:49.336Z,100176.30
2019-04-23T21:24:11.312Z,100112.15
2019-04-23T21:26:46.057Z,100177.54
2019-04-23T21:29:13.534Z,100178.28
2019-04-23T21:31:48.015Z,100176.31
2019-04-23T21:34:18.032Z,100177.64
2019-04-23T21:36:44.517Z,100177.13
2019-04-23T21:39:34.569Z,100179.41
2019-04-23T21:44:26.758Z,100172.69
2019-04-23T21:47:04.556Z,100174.34
2019-04-23T21:49:50.717Z,100176.18
2019-04-23T21:52:11.541Z,100169.09
2019-04-23T21:54:47.202Z,100173.59
2019-04-23T21:57:09.139Z,100172.78
2019-04-23T21:59:41.378Z,100167.51
2019-04-23T22:02:12.782Z,100172.55
2019-04-23T22:04:45.678Z,100168.43
2019-04-23T22:07:14.988Z,100169.03
2019-04-23T22:09:50.412Z,100167.12
2019-04-23T22:12:15.368Z,100160.09
2019-04-23T22:14:47.255Z,100158.02
2019-04-23T22:19:55.249Z,100147.77
2019-04-23T22:22:22.173Z,100151.73
2019-04-23T22:24:48.234Z,100152.46
2019-04-23T22:27:35.444Z,100146.48
2019-04-23T22:29:45.064Z,100142.69
2019-04-23T22:32:23.394Z,100138.48
2019-04-23T22:34:55.922Z,100140.30
2019-04-23T22:37:23.538Z,100139.22
2019-04-23T22:39:52.414Z,100140.59
2019-04-23T22:42:34.482Z,100140.38
2019-04-23T22:45:00.583Z,100133.55
2019-04-23T22:47:15.538Z,100135.58
2019-04-23T22:52:21.643Z,100131.41
2019-04-23T22:55:07.628Z,100130.00
2019-04-23T22:57:28.833Z,100129.33
2019-04-23T23:00:04.640Z,100130.84
2019-04-23T23:02:46.664Z,100126.02
2019-04-23T23:07:48.960Z,100119.52
2019-04-23T23:10:20.867Z,100120.61
2019-04-23T23:13:02.305Z,100134.57
2019-04-23T23:15:12.605Z,100125.33
2019-04-23T23:17:45.289Z,100125.87
2019-04-23T23:20:18.711Z,100126.92
2019-04-23T23:25:16.826Z,100130.30
2019-04-23T23:27:41.392Z,100127.26
2019-04-23T23:32:47.522Z,100120.23
2019-04-23T23:35:24.532Z,100122.50
2019-04-23T23:37:46.569Z,100123.57
2019-04-23T23:40:23.707Z,100128.16
2019-04-23T23:42:55.818Z,100128.42
2019-04-23T23:45:19.179Z,100122.27
2019-04-23T23:47:46.166Z,100117.89
2019-04-23T23:50:22.272Z,100115.22
2019-04-23T23:53:00.183Z,100114.20
2019-04-23T23:55:16.618Z,100118.05
2019-04-23T23:57:41.271Z,100116.02
